Time;durP1;ratioP1;P1;durP2;ratioP2;P2;SDS_P1;SDS_P2;PMS_P1;PMS_P2;Temp;Humidity;BMP_temperature;BMP_pressure;BME280_temperature;BME280_humidity;BME280_pressure;Samples;Min_cycle;Max_cycle;Signal;HPM_P1;HPM_P2
2023/09/23 00:01:05;;;;;;;2.00;1.05;;;13.20;99.90;;;;;;4957693;29;20084;-72
2023/09/23 00:03:33;;;;;;;2.42;1.38;;;13.10;99.90;;;;;;4956794;29;20398;-72
2023/09/23 00:06:00;;;;;;;4.70;1.50;;;13.10;99.90;;;;;;4957309;29;20122;-71
2023/09/23 00:08:26;;;;;;;3.20;1.60;;;13.10;99.90;;;;;;4956716;28;20031;-72
2023/09/23 00:10:53;;;;;;;3.00;1.50;;;13.10;99.90;;;;;;4957408;29;20027;-71
2023/09/23 00:13:20;;;;;;;3.75;1.20;;;13.00;99.90;;;;;;4955196;29;20498;-71
2023/09/23 00:15:46;;;;;;;1.50;1.27;;;13.00;99.90;;;;;;4957171;29;20175;-71
2023/09/23 00:18:17;;;;;;;2.28;1.20;;;13.00;99.90;;;;;;4956532;29;20106;-71
2023/09/23 00:20:44;;;;;;;2.28;1.00;;;13.00;99.90;;;;;;4957280;29;20024;-71
2023/09/23 00:23:09;;;;;;;1.50;1.15;;;13.00;99.90;;;;;;4956440;29;20504;-71
2023/09/23 00:25:35;;;;;;;2.67;1.20;;;12.90;99.90;;;;;;4939805;29;20027;-71
2023/09/23 00:28:01;;;;;;;1.77;1.27;;;12.80;99.90;;;;;;4956322;29;20030;-71
2023/09/23 00:30:27;;;;;;;2.35;1.15;;;12.80;99.90;;;;;;4957020;29;20032;-71
2023/09/23 00:32:53;;;;;;;5.63;1.60;;;12.70;99.90;;;;;;4938859;29;20058;-71
2023/09/23 00:35:19;;;;;;;3.53;1.63;;;12.70;99.90;;;;;;4956824;29;20062;-71
2023/09/23 00:37:49;;;;;;;3.63;1.42;;;12.70;99.90;;;;;;4938930;29;20035;-71
2023/09/23 00:40:30;;;;;;;3.10;1.40;;;12.70;99.90;;;;;;4956767;29;20098;-72
2023/09/23 00:42:56;;;;;;;2.60;1.23;;;12.70;99.90;;;;;;4956073;29;20055;-71
2023/09/23 00:45:25;;;;;;;3.47;1.40;;;12.70;99.90;;;;;;4957108;29;20019;-71
2023/09/23 00:47:52;;;;;;;2.83;1.60;;;12.70;99.90;;;;;;4955939;29;20058;-71
2023/09/23 00:50:18;;;;;;;2.45;1.40;;;12.70;99.90;;;;;;4956771;29;20447;-71
2023/09/23 00:52:48;;;;;;;3.70;1.70;;;12.60;99.90;;;;;;4955909;29;20032;-71
2023/09/23 00:55:16;;;;;;;2.10;1.48;;;12.60;99.90;;;;;;4956472;29;20545;-71
2023/09/23 00:57:43;;;;;;;3.20;1.42;;;12.60;99.90;;;;;;4955873;29;20031;-71
2023/09/23 01:00:23;;;;;;;3.33;1.65;;;12.60;99.90;;;;;;4956368;29;20116;-71
2023/09/23 01:02:49;;;;;;;4.53;1.60;;;12.60;99.90;;;;;;4955655;28;20027;-71
2023/09/23 01:05:18;;;;;;;4.00;1.60;;;12.50;99.90;;;;;;4956462;29;20375;-71
2023/09/23 01:07:45;;;;;;;3.05;1.52;;;12.50;99.90;;;;;;4955614;28;20031;-72
2023/09/23 01:10:12;;;;;;;3.40;1.83;;;12.60;99.90;;;;;;4956184;29;20058;-72
2023/09/23 01:12:38;;;;;;;3.00;1.60;;;12.60;99.90;;;;;;4955451;29;20042;-72
2023/09/23 01:15:04;;;;;;;3.13;2.17;;;12.70;99.90;;;;;;4956129;29;20027;-72
2023/09/23 01:17:30;;;;;;;3.80;2.50;;;12.60;99.90;;;;;;4955683;29;20020;-72
2023/09/23 01:19:56;;;;;;;6.03;3.80;;;12.70;99.90;;;;;;4956169;29;20020;-71
2023/09/23 01:22:27;;;;;;;8.40;4.40;;;12.70;99.90;;;;;;4955593;29;20027;-72
2023/09/23 01:24:53;;;;;;;9.02;5.53;;;12.70;99.90;;;;;;4956043;29;20030;-71
2023/09/23 01:27:19;;;;;;;6.32;4.88;;;12.60;99.90;;;;;;4937990;29;20450;-72
2023/09/23 01:29:52;;;;;;;9.73;5.90;;;12.60;99.90;;;;;;4956097;29;20501;-72
2023/09/23 01:32:47;;;;;;;9.85;6.47;;;12.60;99.90;;;;;;4955102;29;20398;-72
2023/09/23 01:35:17;;;;;;;8.65;6.68;;;12.60;99.90;;;;;;4955897;29;20028;-72
2023/09/23 01:37:47;;;;;;;10.98;8.38;;;12.50;99.90;;;;;;4955135;29;20375;-72
2023/09/23 01:40:24;;;;;;;10.20;8.13;;;12.50;99.90;;;;;;4955506;29;20020;-72
2023/09/23 01:42:50;;;;;;;10.77;8.75;;;12.50;99.90;;;;;;4955095;29;20481;-72
2023/09/23 01:45:19;;;;;;;13.27;10.10;;;12.40;99.90;;;;;;4955737;29;20034;-71
2023/09/23 01:47:46;;;;;;;16.80;10.65;;;12.40;99.90;;;;;;4955084;29;20044;-71
2023/09/23 01:50:13;;;;;;;13.05;10.55;;;12.40;99.90;;;;;;4955603;29;20027;-72
2023/09/23 01:53:00;;;;;;;14.07;10.60;;;12.40;99.90;;;;;;4954852;29;20110;-71
2023/09/23 01:55:26;;;;;;;15.65;11.90;;;12.40;99.90;;;;;;4955396;29;20489;-71
2023/09/23 01:57:52;;;;;;;16.92;12.15;;;12.40;99.90;;;;;;4953519;29;20031;-71
2023/09/23 02:00:18;;;;;;;13.10;10.30;;;12.40;99.90;;;;;;4955226;29;20024;-72
2023/09/23 02:02:48;;;;;;;16.42;12.80;;;12.40;99.90;;;;;;4937450;29;20031;-72
2023/09/23 02:05:15;;;;;;;15.15;12.27;;;12.40;99.90;;;;;;4955725;29;20030;-71
2023/09/23 02:07:41;;;;;;;19.00;13.27;;;12.50;99.90;;;;;;4937289;29;20027;-71
2023/09/23 02:10:14;;;;;;;12.35;10.98;;;12.50;99.90;;;;;;4955295;29;20025;-71
2023/09/23 02:12:44;;;;;;;19.98;13.75;;;12.50;99.90;;;;;;4954707;29;20375;-72
2023/09/23 02:15:16;;;;;;;15.70;13.13;;;12.50;99.90;;;;;;4937112;29;20024;-72
2023/09/23 02:17:46;;;;;;;14.70;11.50;;;12.60;99.90;;;;;;4954255;29;20019;-71
2023/09/23 02:20:24;;;;;;;16.17;12.98;;;12.60;99.90;;;;;;4955107;29;20020;-71
2023/09/23 02:22:53;;;;;;;17.65;14.60;;;12.60;99.90;;;;;;4954253;29;20031;-72
2023/09/23 02:25:20;;;;;;;12.48;9.93;;;12.60;99.90;;;;;;4954874;29;20078;-72
2023/09/23 02:27:46;;;;;;;16.52;13.30;;;12.60;99.90;;;;;;4954609;29;20030;-72
2023/09/23 02:30:13;;;;;;;19.25;14.40;;;12.60;99.90;;;;;;4954743;29;20028;-71
2023/09/23 02:32:40;;;;;;;19.73;15.35;;;12.60;99.90;;;;;;4953834;29;20090;-71
2023/09/23 02:35:16;;;;;;;18.55;14.93;;;12.50;99.90;;;;;;4937477;29;20015;-71
2023/09/23 02:37:47;;;;;;;17.10;14.30;;;12.50;99.90;;;;;;4954168;29;20055;-72
2023/09/23 02:40:17;;;;;;;17.73;11.73;;;12.60;99.90;;;;;;4954412;29;20064;-71
2023/09/23 02:42:46;;;;;;;28.67;16.20;;;12.60;99.90;;;;;;4936635;29;20042;-72
2023/09/23 02:45:15;;;;;;;19.80;15.77;;;12.50;99.90;;;;;;4953436;29;20043;-72
2023/09/23 02:47:43;;;;;;;17.02;14.13;;;12.50;99.90;;;;;;4936653;29;20462;-71
2023/09/23 02:50:10;;;;;;;22.98;16.63;;;12.60;99.90;;;;;;4954453;29;20028;-72
2023/09/23 02:52:40;;;;;;;17.20;13.20;;;12.60;99.90;;;;;;4953691;29;20031;-71
2023/09/23 02:55:12;;;;;;;23.02;15.23;;;12.60;99.90;;;;;;4954290;29;20079;-71
2023/09/23 02:57:39;;;;;;;21.88;15.80;;;12.60;99.90;;;;;;4936332;29;20027;-72
2023/09/23 03:00:16;;;;;;;17.23;14.07;;;12.60;99.90;;;;;;4937306;29;20030;-71
2023/09/23 03:02:48;;;;;;;18.25;14.15;;;12.60;99.90;;;;;;4953630;29;20039;-72
2023/09/23 03:05:18;;;;;;;21.55;16.67;;;12.60;99.90;;;;;;4937037;29;20023;-71
2023/09/23 03:07:50;;;;;;;24.90;16.55;;;12.60;99.90;;;;;;4953356;28;20038;-72
2023/09/23 03:10:29;;;;;;;17.27;14.00;;;12.60;99.90;;;;;;4954328;29;20031;-71
2023/09/23 03:13:02;;;;;;;21.80;15.60;;;12.60;99.90;;;;;;4953669;29;20036;-71
2023/09/23 03:15:33;;;;;;;21.42;16.83;;;12.60;99.90;;;;;;4954222;29;20098;-72
2023/09/23 03:18:00;;;;;;;16.42;13.20;;;12.60;99.90;;;;;;4936330;29;20023;-71
2023/09/23 03:20:26;;;;;;;21.17;14.52;;;12.60;99.90;;;;;;4954044;29;20110;-71
2023/09/23 03:22:54;;;;;;;15.90;13.50;;;12.60;99.90;;;;;;4953506;29;20538;-72
2023/09/23 03:25:20;;;;;;;19.52;14.73;;;12.60;99.90;;;;;;4953939;29;20015;-72
2023/09/23 03:27:48;;;;;;;18.80;13.75;;;12.50;99.90;;;;;;4953051;28;20027;-71
2023/09/23 03:30:15;;;;;;;21.20;14.20;;;12.60;99.90;;;;;;4953862;29;20478;-72
2023/09/23 03:32:41;;;;;;;19.35;13.40;;;12.50;99.90;;;;;;4953115;29;20035;-72
2023/09/23 03:35:16;;;;;;;19.55;14.02;;;12.60;99.90;;;;;;4936583;29;20143;-71
2023/09/23 03:37:43;;;;;;;18.02;13.82;;;12.60;99.90;;;;;;4953209;29;20019;-72
2023/09/23 03:40:09;;;;;;;20.52;15.40;;;12.50;99.90;;;;;;4953672;29;20023;-72
2023/09/23 03:42:35;;;;;;;17.67;13.63;;;12.50;99.90;;;;;;4953362;29;20037;-72
2023/09/23 03:45:03;;;;;;;19.33;14.25;;;12.60;99.90;;;;;;4953596;29;20029;-71
2023/09/23 03:47:28;;;;;;;21.98;14.50;;;12.60;99.90;;;;;;4953250;29;20401;-72
2023/09/23 03:49:55;;;;;;;20.55;15.15;;;12.60;99.90;;;;;;4953505;29;20038;-72
2023/09/23 03:52:23;;;;;;;19.60;14.90;;;12.60;99.90;;;;;;4953332;29;20024;-72
2023/09/23 03:54:49;;;;;;;21.13;15.43;;;12.60;99.90;;;;;;4953568;29;20098;-72
2023/09/23 03:57:15;;;;;;;21.17;15.23;;;12.60;99.90;;;;;;4953535;29;20505;-71
2023/09/23 03:59:41;;;;;;;22.20;15.93;;;12.60;99.90;;;;;;4936271;29;20447;-72
2023/09/23 04:02:07;;;;;;;17.63;14.23;;;12.60;99.90;;;;;;4953445;29;20028;-72
2023/09/23 04:04:37;;;;;;;21.70;14.90;;;12.60;99.90;;;;;;4953094;29;20058;-72
2023/09/23 04:07:05;;;;;;;19.42;15.05;;;12.60;99.90;;;;;;4953774;28;20371;-71
2023/09/23 04:09:32;;;;;;;21.60;15.63;;;12.60;99.90;;;;;;4953001;29;20016;-72
2023/09/23 04:11:57;;;;;;;19.30;12.75;;;12.60;99.90;;;;;;4953494;29;20053;-72
2023/09/23 04:14:26;;;;;;;17.70;14.18;;;12.60;99.90;;;;;;4952875;29;20542;-72
2023/09/23 04:16:52;;;;;;;16.95;13.93;;;12.60;99.90;;;;;;4953447;29;20028;-72
2023/09/23 04:19:18;;;;;;;22.02;15.50;;;12.60;99.90;;;;;;4952803;29;20171;-72
2023/09/23 04:21:44;;;;;;;18.50;14.18;;;12.60;99.90;;;;;;4953646;29;20126;-72
2023/09/23 04:24:10;;;;;;;19.98;15.32;;;12.60;99.90;;;;;;4952861;29;20102;-73
2023/09/23 04:26:35;;;;;;;21.38;14.07;;;12.60;99.90;;;;;;4953407;29;20042;-72
2023/09/23 04:29:01;;;;;;;17.55;12.48;;;12.60;99.90;;;;;;4952814;29;20019;-71
2023/09/23 04:31:28;;;;;;;18.23;13.82;;;12.60;99.90;;;;;;4953269;29;20023;-72
2023/09/23 04:33:54;;;;;;;23.38;15.18;;;12.60;99.90;;;;;;4952699;29;20027;-71
2023/09/23 04:36:21;;;;;;;20.10;15.13;;;12.50;99.90;;;;;;4953455;29;20019;-72
2023/09/23 04:38:47;;;;;;;22.20;15.30;;;12.60;99.90;;;;;;4954589;28;20023;-72
2023/09/23 04:41:13;;;;;;;23.42;16.23;;;12.60;99.90;;;;;;4946045;29;20055;-72
2023/09/23 04:43:39;;;;;;;18.33;14.32;;;12.60;99.90;;;;;;4956314;28;20027;-72
2023/09/23 04:46:06;;;;;;;16.70;11.48;;;12.60;99.90;;;;;;4956983;28;20042;-72
2023/09/23 04:48:32;;;;;;;18.48;14.30;;;12.60;99.90;;;;;;4954980;29;20031;-72
2023/09/23 04:50:57;;;;;;;18.17;13.73;;;12.60;99.90;;;;;;4956821;28;20027;-72
2023/09/23 04:53:24;;;;;;;20.60;14.73;;;12.60;99.90;;;;;;4955948;29;20032;-71
2023/09/23 04:55:49;;;;;;;23.02;15.45;;;12.60;99.90;;;;;;4956612;28;20102;-72
2023/09/23 04:58:15;;;;;;;19.05;14.00;;;12.60;99.90;;;;;;4956132;28;20102;-72
2023/09/23 05:00:41;;;;;;;15.52;11.77;;;12.60;99.90;;;;;;4956407;28;20019;-72
2023/09/23 05:03:08;;;;;;;19.88;14.10;;;12.60;99.90;;;;;;4955901;29;20506;-72
2023/09/23 05:05:35;;;;;;;14.13;12.15;;;12.60;99.90;;;;;;4956422;28;20030;-72
2023/09/23 05:08:06;;;;;;;18.10;13.57;;;12.60;99.90;;;;;;4955551;28;20549;-72
2023/09/23 05:10:32;;;;;;;;;;;12.60;99.90;;;;;;4956802;28;20106;-72
2023/09/23 05:12:57;;;;;;;18.45;11.25;;;12.60;99.90;;;;;;4955476;28;19918;-72
2023/09/23 05:15:24;;;;;;;19.58;14.27;;;12.50;99.90;;;;;;4954899;28;20031;-72
2023/09/23 05:17:52;;;;;;;24.63;13.55;;;12.50;99.90;;;;;;4955615;28;20506;-72
2023/09/23 05:20:25;;;;;;;17.60;13.15;;;12.50;99.90;;;;;;4956322;28;20077;-72
2023/09/23 05:22:52;;;;;;;17.10;13.07;;;12.50;99.90;;;;;;4956072;28;20035;-72
2023/09/23 05:25:18;;;;;;;15.80;11.90;;;12.50;99.90;;;;;;4955713;28;20442;-72
2023/09/23 05:27:44;;;;;;;18.23;13.23;;;12.60;99.90;;;;;;4955498;28;20023;-72
2023/09/23 05:30:10;;;;;;;13.68;11.07;;;12.50;99.90;;;;;;4955684;28;20051;-72
2023/09/23 05:32:37;;;;;;;12.88;10.57;;;12.50;99.90;;;;;;4970149;28;20523;-72
2023/09/23 05:35:09;;;;;;;14.30;10.93;;;12.50;99.90;;;;;;4955727;28;20545;-71
2023/09/23 05:37:40;;;;;;;17.17;10.70;;;12.60;99.90;;;;;;4954162;29;20045;-71
2023/09/23 05:40:10;;;;;;;13.63;11.27;;;12.60;99.90;;;;;;4970162;28;20030;-72
2023/09/23 05:42:36;;;;;;;16.55;11.52;;;12.50;99.90;;;;;;4954225;29;20476;-72
2023/09/23 05:45:03;;;;;;;14.85;11.25;;;12.50;99.90;;;;;;4955540;29;20102;-72
2023/09/23 05:47:30;;;;;;;18.38;10.93;;;12.50;99.90;;;;;;4938223;29;20039;-72
2023/09/23 05:49:56;;;;;;;16.45;8.85;;;12.50;99.90;;;;;;4954137;28;20035;-72
2023/09/23 05:52:21;;;;;;;13.80;8.70;;;12.50;99.90;;;;;;4955468;29;20390;-72
2023/09/23 05:54:48;;;;;;;16.98;9.73;;;12.50;99.90;;;;;;4954843;29;20470;-72
2023/09/23 05:57:13;;;;;;;11.88;8.02;;;12.50;99.90;;;;;;4955402;29;20043;-71
2023/09/23 05:59:39;;;;;;;14.80;7.65;;;12.50;99.90;;;;;;4955028;29;20024;-71
2023/09/23 06:02:08;;;;;;;14.57;8.75;;;12.50;99.90;;;;;;4955444;29;20410;-72
2023/09/23 06:04:35;;;;;;;11.80;7.82;;;12.50;99.90;;;;;;4954756;29;20451;-71
2023/09/23 06:07:00;;;;;;;14.20;9.00;;;12.50;99.90;;;;;;4955116;28;20055;-72
2023/09/23 06:09:26;;;;;;;13.90;8.57;;;12.40;99.90;;;;;;4954521;29;20054;-72
2023/09/23 06:11:52;;;;;;;15.65;8.75;;;12.50;99.90;;;;;;4955085;29;20438;-71
2023/09/23 06:14:18;;;;;;;11.52;7.75;;;12.40;99.90;;;;;;4954669;29;20445;-72
2023/09/23 06:16:44;;;;;;;11.77;7.75;;;12.40;99.90;;;;;;4955098;29;20019;-72
2023/09/23 06:19:09;;;;;;;11.20;7.75;;;12.40;99.90;;;;;;4954617;29;20085;-72
2023/09/23 06:21:35;;;;;;;15.50;9.38;;;12.50;99.90;;;;;;4955031;29;20027;-72
2023/09/23 06:24:01;;;;;;;12.90;7.60;;;12.40;99.90;;;;;;4937295;29;20375;-72
2023/09/23 06:26:26;;;;;;;17.58;8.07;;;12.40;99.90;;;;;;4954888;29;20506;-72
2023/09/23 06:28:52;;;;;;;12.95;8.23;;;12.50;99.90;;;;;;4954675;29;20020;-72
2023/09/23 06:31:17;;;;;;;13.35;8.75;;;12.40;99.90;;;;;;4954801;29;20019;-72
2023/09/23 06:33:43;;;;;;;18.20;9.32;;;12.40;99.90;;;;;;4936693;29;20035;-72
2023/09/23 06:36:09;;;;;;;12.75;7.85;;;12.40;99.90;;;;;;4954410;29;20027;-71
2023/09/23 06:38:34;;;;;;;13.00;8.13;;;12.40;99.90;;;;;;4954157;29;20031;-72
2023/09/23 06:41:00;;;;;;;12.30;8.18;;;12.50;99.90;;;;;;4954402;29;20577;-72
2023/09/23 06:43:26;;;;;;;16.58;10.07;;;12.50;99.90;;;;;;4954231;29;20031;-72
2023/09/23 06:45:56;;;;;;;13.85;8.25;;;12.50;99.90;;;;;;4954737;29;20023;-71
2023/09/23 06:48:23;;;;;;;15.45;9.90;;;12.40;99.90;;;;;;4953911;29;20028;-72
2023/09/23 06:51:02;;;;;;;11.30;8.18;;;12.50;99.90;;;;;;4954495;29;20070;-72
2023/09/23 06:53:29;;;;;;;11.95;7.53;;;12.50;99.90;;;;;;4953614;29;20027;-72
2023/09/23 06:55:54;;;;;;;11.43;7.70;;;12.40;99.90;;;;;;4954489;29;20029;-71
2023/09/23 06:58:20;;;;;;;17.17;9.63;;;12.50;99.90;;;;;;4953805;29;20445;-71
2023/09/23 07:00:46;;;;;;;13.32;9.45;;;12.50;99.90;;;;;;4954225;28;20051;-72
2023/09/23 07:03:12;;;;;;;16.92;9.50;;;12.50;99.90;;;;;;4953587;29;20528;-71
2023/09/23 07:05:38;;;;;;;13.65;10.40;;;12.60;99.90;;;;;;4954022;29;20470;-71
2023/09/23 07:08:04;;;;;;;17.15;10.02;;;12.60;99.90;;;;;;4953650;28;20097;-71
2023/09/23 07:10:38;;;;;;;14.60;10.00;;;12.70;99.90;;;;;;4953925;29;20023;-72
2023/09/23 07:13:04;;;;;;;15.38;10.07;;;12.70;99.90;;;;;;4953706;29;20114;-71
2023/09/23 07:15:37;;;;;;;13.07;9.20;;;12.70;99.90;;;;;;4953932;29;20019;-72
2023/09/23 07:18:04;;;;;;;16.20;9.48;;;12.80;99.90;;;;;;4936429;29;20126;-72
2023/09/23 07:20:30;;;;;;;12.85;9.35;;;12.80;99.90;;;;;;4953940;29;20090;-71
2023/09/23 07:22:56;;;;;;;12.73;8.07;;;12.90;99.90;;;;;;4953656;29;20554;-72
2023/09/23 07:25:22;;;;;;;12.32;7.97;;;13.00;99.90;;;;;;4953952;29;20070;-72
2023/09/23 07:27:47;;;;;;;16.63;8.82;;;13.00;99.90;;;;;;4936616;29;20023;-72
2023/09/23 07:30:14;;;;;;;11.43;7.72;;;13.00;99.90;;;;;;4953482;29;20027;-71
2023/09/23 07:32:40;;;;;;;16.48;7.00;;;13.10;99.90;;;;;;4953791;29;20418;-72
2023/09/23 07:35:07;;;;;;;15.75;8.60;;;13.10;99.90;;;;;;4953357;29;20022;-71
2023/09/23 07:37:33;;;;;;;10.40;6.80;;;13.10;99.90;;;;;;4953842;29;20034;-72
2023/09/23 07:39:59;;;;;;;10.10;7.30;;;13.20;99.90;;;;;;4953372;29;20027;-71
2023/09/23 07:42:24;;;;;;;9.20;6.13;;;13.20;99.90;;;;;;4953716;29;20522;-71
2023/09/23 07:44:50;;;;;;;10.38;6.63;;;13.30;99.90;;;;;;4935983;29;20055;-71
2023/09/23 07:47:16;;;;;;;10.80;7.15;;;13.30;99.90;;;;;;4953902;29;20371;-71
2023/09/23 07:49:41;;;;;;;10.27;6.80;;;13.40;99.90;;;;;;4953100;29;20031;-72
2023/09/23 07:52:07;;;;;;;11.88;6.25;;;13.40;99.90;;;;;;4953653;29;20102;-71
2023/09/23 07:54:33;;;;;;;9.90;7.18;;;13.40;99.90;;;;;;4953386;29;20114;-71
2023/09/23 07:56:59;;;;;;;12.23;7.32;;;13.50;99.90;;;;;;4954005;29;20103;-71
2023/09/23 07:59:24;;;;;;;20.95;13.18;;;13.50;99.90;;;;;;4953235;29;20106;-72
2023/09/23 08:01:50;;;;;;;94.85;55.47;;;13.50;99.90;;;;;;4953843;29;20516;-72
2023/09/23 08:04:16;;;;;;;48.22;32.20;;;13.50;99.90;;;;;;4953057;29;20058;-71
2023/09/23 08:06:43;;;;;;;52.78;37.58;;;13.60;99.90;;;;;;4953516;28;20090;-71
2023/09/23 08:09:09;;;;;;;12.55;9.18;;;13.60;99.90;;;;;;4951809;29;20114;-72
2023/09/23 08:11:34;;;;;;;9.68;7.30;;;13.70;99.90;;;;;;4953599;29;20474;-72
2023/09/23 08:14:01;;;;;;;10.88;7.18;;;13.70;99.90;;;;;;4955195;28;20031;-71
2023/09/23 08:16:26;;;;;;;10.30;5.70;;;13.70;99.90;;;;;;4956010;29;20039;-72
2023/09/23 08:18:52;;;;;;;13.45;6.70;;;13.80;99.90;;;;;;4957141;29;20027;-71
2023/09/23 08:21:18;;;;;;;10.85;6.05;;;13.80;99.90;;;;;;4957166;29;20019;-71
2023/09/23 08:23:44;;;;;;;10.15;6.75;;;13.80;99.90;;;;;;4939284;29;20532;-71
2023/09/23 08:26:10;;;;;;;9.90;7.15;;;13.90;99.90;;;;;;4939896;29;20059;-71
2023/09/23 08:28:36;;;;;;;11.65;6.45;;;14.00;99.90;;;;;;4956404;29;20028;-71
2023/09/23 08:31:02;;;;;;;11.70;6.15;;;14.10;99.90;;;;;;4957034;29;20047;-72
2023/09/23 08:33:28;;;;;;;15.15;6.65;;;14.20;99.90;;;;;;4956565;29;20503;-71
2023/09/23 08:35:54;;;;;;;18.25;14.48;;;14.30;99.90;;;;;;4956694;29;20023;-71
2023/09/23 08:38:20;;;;;;;8.25;6.47;;;14.40;99.90;;;;;;4956459;29;20053;-71
2023/09/23 08:40:46;;;;;;;9.57;5.18;;;14.50;99.90;;;;;;4956333;29;20051;-71
2023/09/23 08:43:12;;;;;;;9.52;4.40;;;14.60;99.90;;;;;;4956451;29;20031;-71
2023/09/23 08:45:46;;;;;;;16.08;6.35;;;14.60;99.90;;;;;;4956499;29;20106;-71
2023/09/23 08:48:13;;;;;;;29.90;14.68;;;14.60;99.90;;;;;;4956442;29;20379;-72
2023/09/23 08:50:43;;;;;;;58.67;20.30;;;14.60;99.90;;;;;;4956349;29;20485;-71
2023/09/23 08:53:11;;;;;;;39.45;13.27;;;14.60;99.90;;;;;;4939192;29;20118;-72
2023/09/23 08:55:38;;;;;;;49.25;17.02;;;14.60;99.90;;;;;;4956119;29;20023;-71
2023/09/23 08:58:04;;;;;;;17.83;8.02;;;14.60;99.90;;;;;;4956679;29;20031;-71
2023/09/23 09:00:30;;;;;;;12.50;5.65;;;14.60;99.90;;;;;;4938691;29;20517;-72
2023/09/23 09:02:57;;;;;;;18.50;7.93;;;14.60;99.90;;;;;;4956331;29;20115;-71
2023/09/23 09:05:23;;;;;;;19.52;9.38;;;14.60;99.90;;;;;;4955803;29;20027;-72
2023/09/23 09:07:49;;;;;;;38.63;20.15;;;14.60;99.90;;;;;;4938962;29;20024;-71
2023/09/23 09:10:17;;;;;;;27.40;14.65;;;14.60;99.90;;;;;;4955750;29;20063;-71
2023/09/23 09:12:43;;;;;;;22.52;13.10;;;14.70;99.90;;;;;;4956219;29;20023;-71
2023/09/23 09:15:09;;;;;;;25.27;12.07;;;14.70;99.90;;;;;;4955561;29;20031;-72
2023/09/23 09:17:34;;;;;;;37.15;18.75;;;14.80;99.90;;;;;;4956246;29;20019;-72
2023/09/23 09:20:06;;;;;;;20.95;12.70;;;14.80;99.90;;;;;;4955496;29;20026;-71
2023/09/23 09:22:32;;;;;;;47.25;30.48;;;14.80;99.90;;;;;;4956152;29;20058;-71
2023/09/23 09:24:58;;;;;;;63.97;21.80;;;14.90;99.90;;;;;;4938124;29;20134;-72
2023/09/23 09:27:23;;;;;;;32.65;13.45;;;14.90;99.90;;;;;;4956110;29;20485;-72
2023/09/23 09:29:50;;;;;;;31.60;14.32;;;14.90;99.90;;;;;;4955331;29;20034;-71
2023/09/23 09:32:21;;;;;;;63.88;21.02;;;14.90;99.90;;;;;;4956064;29;20561;-71
2023/09/23 09:34:47;;;;;;;177.48;42.35;;;14.80;99.90;;;;;;4955738;29;20031;-71
2023/09/23 09:37:14;;;;;;;185.93;43.78;;;14.80;99.90;;;;;;4956055;29;20394;-71
2023/09/23 09:40:00;;;;;;;82.78;27.90;;;14.90;99.90;;;;;;4955207;29;20058;-71
2023/09/23 09:42:30;;;;;;;90.07;30.83;;;14.80;99.90;;;;;;4955835;29;20035;-71
2023/09/23 09:44:57;;;;;;;94.22;39.17;;;14.80;99.90;;;;;;4955093;29;20379;-71
2023/09/23 09:47:23;;;;;;;82.43;32.25;;;14.80;99.90;;;;;;4955948;29;20478;-71
2023/09/23 09:49:54;;;;;;;79.55;22.63;;;14.80;99.90;;;;;;4954940;29;20023;-70
2023/09/23 09:52:26;;;;;;;83.82;33.13;;;14.80;99.90;;;;;;4955558;29;20487;-71
2023/09/23 09:54:54;;;;;;;176.45;59.92;;;14.80;99.90;;;;;;4954843;29;20106;-71
2023/09/23 09:57:22;;;;;;;40.05;19.50;;;14.80;99.90;;;;;;4955380;29;20027;-71
2023/09/23 09:59:48;;;;;;;16.45;9.88;;;14.80;99.90;;;;;;4954994;29;20042;-70
2023/09/23 10:02:15;;;;;;;11.40;6.05;;;14.80;99.90;;;;;;4955738;29;20043;-70
2023/09/23 10:04:45;;;;;;;9.35;4.50;;;14.90;99.90;;;;;;4954699;29;20034;-70
2023/09/23 10:07:11;;;;;;;11.75;4.82;;;14.90;99.90;;;;;;4955293;28;20054;-70
2023/09/23 10:09:39;;;;;;;9.52;4.40;;;14.90;99.90;;;;;;4954535;29;20493;-71
2023/09/23 10:12:07;;;;;;;7.60;3.63;;;14.90;99.90;;;;;;4955007;29;20043;-71
2023/09/23 10:14:33;;;;;;;7.40;4.53;;;14.90;99.90;;;;;;4954722;29;20023;-71
2023/09/23 10:17:02;;;;;;;11.52;4.80;;;14.90;99.90;;;;;;4955076;29;20015;-71
2023/09/23 10:19:31;;;;;;;10.25;3.80;;;14.90;99.90;;;;;;4954304;29;20058;-71
2023/09/23 10:22:18;;;;;;;9.13;6.60;;;14.90;99.90;;;;;;4937757;29;20043;-71
2023/09/23 10:24:44;;;;;;;29.00;16.20;;;15.00;99.90;;;;;;4954260;29;20054;-71
2023/09/23 10:27:10;;;;;;;51.53;23.50;;;15.00;99.90;;;;;;4937623;29;20026;-71
2023/09/23 10:29:47;;;;;;;62.42;24.67;;;15.00;99.90;;;;;;4954270;29;20030;-71
2023/09/23 10:32:14;;;;;;;56.35;21.83;;;15.10;99.90;;;;;;4954845;29;20055;-71
2023/09/23 10:34:50;;;;;;;47.28;19.73;;;15.10;99.90;;;;;;4954091;29;20023;-70
2023/09/23 10:37:26;;;;;;;42.17;19.65;;;15.20;99.90;;;;;;4954540;28;20373;-71
2023/09/23 10:39:52;;;;;;;15.80;7.82;;;15.20;99.90;;;;;;4936833;29;20026;-71
2023/09/23 10:42:17;;;;;;;29.45;13.77;;;15.30;99.90;;;;;;4954276;29;20047;-71
2023/09/23 10:44:47;;;;;;;22.70;10.52;;;15.30;99.90;;;;;;4936625;29;20019;-71
2023/09/23 10:47:14;;;;;;;52.53;21.75;;;15.40;99.90;;;;;;4954559;29;20058;-71
2023/09/23 10:49:40;;;;;;;55.60;26.77;;;15.40;99.90;;;;;;4953755;29;20102;-71
2023/09/23 10:52:06;;;;;;;32.42;13.40;;;15.50;99.90;;;;;;4954393;29;20035;-71
2023/09/23 10:54:33;;;;;;;55.05;24.33;;;15.50;99.90;;;;;;4953725;29;20055;-71
2023/09/23 10:57:01;;;;;;;22.77;11.77;;;15.60;99.90;;;;;;4954328;29;20509;-71
2023/09/23 10:59:27;;;;;;;30.52;14.27;;;15.60;99.90;;;;;;4953674;29;20054;-71
2023/09/23 11:01:56;;;;;;;62.70;20.08;;;15.70;99.90;;;;;;4954444;29;20039;-71
2023/09/23 11:04:25;;;;;;;54.33;17.00;;;15.70;99.90;;;;;;4953663;29;20397;-71
2023/09/23 11:06:51;;;;;;;51.88;18.02;;;15.80;99.90;;;;;;4952996;28;20035;-71
2023/09/23 11:09:20;;;;;;;40.60;15.85;;;15.80;99.90;;;;;;4936412;29;20019;-71
2023/09/23 11:11:50;;;;;;;27.35;14.05;;;15.90;99.90;;;;;;4954109;29;20114;-71
2023/09/23 11:14:15;;;;;;;14.45;8.80;;;15.90;99.90;;;;;;4953338;29;20023;-71
2023/09/23 11:16:45;;;;;;;23.83;14.80;;;15.90;99.90;;;;;;4954005;29;20023;-71
2023/09/23 11:19:10;;;;;;;26.88;15.70;;;16.00;99.90;;;;;;4953411;29;20399;-71
2023/09/23 11:21:46;;;;;;;49.10;20.13;;;16.00;99.90;;;;;;4954153;29;20513;-71
2023/09/23 11:24:13;;;;;;;21.80;10.57;;;16.00;99.90;;;;;;4953269;29;20418;-71
2023/09/23 11:26:40;;;;;;;15.15;7.15;;;16.00;99.90;;;;;;4953969;29;20474;-72
2023/09/23 11:29:06;;;;;;;21.33;10.15;;;16.00;99.90;;;;;;4953513;29;20054;-71
2023/09/23 11:31:32;;;;;;;27.02;10.55;;;16.00;99.90;;;;;;4953719;29;20069;-71
2023/09/23 11:33:58;;;;;;;20.65;13.80;;;16.00;99.90;;;;;;4953700;29;20039;-71
2023/09/23 11:36:23;;;;;;;201.68;82.30;;;15.90;99.90;;;;;;4953552;29;20498;-71
2023/09/23 11:38:49;;;;;;;34.90;15.68;;;15.90;99.90;;;;;;4953509;29;20027;-71
2023/09/23 11:41:16;;;;;;;16.42;8.15;;;15.80;99.90;;;;;;4953572;29;20126;-71
2023/09/23 11:43:42;;;;;;;32.05;13.43;;;15.70;99.90;;;;;;4953521;29;20517;-71
2023/09/23 11:46:07;;;;;;;62.30;25.17;;;15.60;99.90;;;;;;4953819;29;20023;-71
2023/09/23 11:48:35;;;;;;;49.10;18.75;;;15.50;99.90;;;;;;4955330;28;20621;-70
2023/09/23 11:51:01;;;;;;;94.57;32.95;;;15.50;99.90;;;;;;4957233;29;20430;-71
2023/09/23 11:53:27;;;;;;;43.63;17.55;;;15.40;99.90;;;;;;4957508;29;20023;-70
2023/09/23 11:55:52;;;;;;;67.65;32.50;;;15.40;99.90;;;;;;4956961;29;20019;-71
2023/09/23 11:58:19;;;;;;;22.90;11.15;;;15.40;99.90;;;;;;4957392;29;20042;-71
2023/09/23 12:00:47;;;;;;;290.15;76.20;;;15.40;99.90;;;;;;4955769;29;20151;-71
2023/09/23 12:03:14;;;;;;;102.97;28.58;;;15.50;99.90;;;;;;4957785;29;20097;-71
2023/09/23 12:05:40;;;;;;;33.67;23.13;;;15.50;99.90;;;;;;4955633;29;20036;-71
2023/09/23 12:08:07;;;;;;;18.58;12.63;;;15.50;99.90;;;;;;4940238;29;20031;-71
2023/09/23 12:10:32;;;;;;;17.08;10.45;;;15.60;99.90;;;;;;4956853;29;20489;-71
2023/09/23 12:13:02;;;;;;;26.73;16.88;;;15.60;99.90;;;;;;4957400;29;20031;-71
2023/09/23 12:15:29;;;;;;;36.85;16.23;;;15.70;99.90;;;;;;4955388;29;20016;-71
2023/09/23 12:17:54;;;;;;;45.97;17.80;;;15.70;99.90;;;;;;4957318;29;20032;-71
2023/09/23 12:20:22;;;;;;;38.08;14.48;;;15.80;99.90;;;;;;4956803;29;20475;-71
2023/09/23 12:22:48;;;;;;;25.17;13.35;;;15.80;99.90;;;;;;4957249;29;20027;-70
2023/09/23 12:25:14;;;;;;;13.63;7.53;;;15.90;99.90;;;;;;4956839;29;20078;-71
2023/09/23 12:27:40;;;;;;;8.65;4.32;;;15.90;99.90;;;;;;4957208;29;20023;-71
2023/09/23 12:30:06;;;;;;;9.20;4.15;;;15.90;99.90;;;;;;4956280;29;20504;-71
2023/09/23 12:32:33;;;;;;;7.93;3.58;;;16.00;99.90;;;;;;4956891;29;20035;-71
2023/09/23 12:34:58;;;;;;;27.75;15.68;;;16.00;99.90;;;;;;4956402;29;20506;-71